If you wish to contribute or participate in the discussions about articles you are invited to join SKYbrary as a registered user

 Actions

Split/Kastela

From SKYbrary Wiki

LDSP
Airport
ICAO: LDSP
Summary
Name Split/Kastela
Region Europe
Territory Croatia HR.gif
Location Split/Kastela
Serving
Coordinates 43° 32' 19.53" N, 16° 17' 51.63" E
Runways
Designator Length Width Surface ROPS
5/23 2550 m8,366.142 ft <br /> 45 m147.638 ft <br /> ASP yes/yes


METAR
Observation LDSP 160700Z 31006KT 280V340 CAVOK 02/M10 Q1018 NOSIG
Station Split / Resnik
Date/Time 16 January 2021 07:00:00
Wind direction 310°
Wind speed 06 kts
Lowest cloud amount clouds and visibility OK
Temperature 2°C
Dew point
Humidity 40%
QNH 1018 hPa
Weather condition n/a


Split/Kastela Airport

ICAO: LDSP IATA: SPU

Description

International airport serving Split, Croatia.

Climatology

Dry-summer subtropical ”Mediterranean" climate (Köppen climate classification Csa) - characterized by hot, dry summers and mild winters. During the summer, subtropical high pressure cells dominate, making rainfall unlikely except for the occasional thunderstorm. In the winter, periodic storms bring rain (snow at higher elevations).

Maps

Terrain

Loading map...

Airport Layout

Loading map...


Accidents & Serious Incidents at or in vicinity of LDSP

None on SKYbrary